sensor_id;sensor_type;location;lat;lon;timestamp;P1;durP1;ratioP1;P2;durP2;ratioP2
79202;SDS011;68630;42.748;23.278;2024-01-30T00:00:30;9.05;;;4.67;;
79202;SDS011;68630;42.748;23.278;2024-01-30T00:02:58;7.80;;;4.50;;
79202;SDS011;68630;42.748;23.278;2024-01-30T00:05:25;8.75;;;4.65;;
79202;SDS011;68630;42.748;23.278;2024-01-30T00:07:53;7.08;;;4.22;;
79202;SDS011;68630;42.748;23.278;2024-01-30T00:10:22;9.40;;;4.92;;
79202;SDS011;68630;42.748;23.278;2024-01-30T00:12:49;8.78;;;3.90;;
79202;SDS011;68630;42.748;23.278;2024-01-30T00:15:18;8.53;;;3.83;;
79202;SDS011;68630;42.748;23.278;2024-01-30T00:17:48;5.83;;;3.33;;
79202;SDS011;68630;42.748;23.278;2024-01-30T00:20:17;9.38;;;3.83;;
79202;SDS011;68630;42.748;23.278;2024-01-30T00:22:49;7.45;;;3.83;;
79202;SDS011;68630;42.748;23.278;2024-01-30T00:25:18;8.05;;;4.17;;
79202;SDS011;68630;42.748;23.278;2024-01-30T00:27:47;8.18;;;4.47;;
79202;SDS011;68630;42.748;23.278;2024-01-30T00:30:14;9.85;;;4.30;;
79202;SDS011;68630;42.748;23.278;2024-01-30T00:32:46;8.65;;;4.70;;
79202;SDS011;68630;42.748;23.278;2024-01-30T00:35:15;7.65;;;4.28;;
79202;SDS011;68630;42.748;23.278;2024-01-30T00:37:49;10.25;;;4.40;;
79202;SDS011;68630;42.748;23.278;2024-01-30T00:40:16;9.00;;;4.53;;
79202;SDS011;68630;42.748;23.278;2024-01-30T00:42:44;8.40;;;4.37;;
79202;SDS011;68630;42.748;23.278;2024-01-30T00:45:18;8.30;;;4.30;;
79202;SDS011;68630;42.748;23.278;2024-01-30T00:47:45;9.70;;;4.60;;
79202;SDS011;68630;42.748;23.278;2024-01-30T00:50:14;10.68;;;5.12;;
79202;SDS011;68630;42.748;23.278;2024-01-30T00:52:44;11.00;;;4.60;;
79202;SDS011;68630;42.748;23.278;2024-01-30T00:55:13;11.60;;;5.03;;
79202;SDS011;68630;42.748;23.278;2024-01-30T00:57:41;9.08;;;4.92;;
79202;SDS011;68630;42.748;23.278;2024-01-30T01:00:09;9.48;;;4.83;;
79202;SDS011;68630;42.748;23.278;2024-01-30T01:02:38;10.95;;;5.05;;
79202;SDS011;68630;42.748;23.278;2024-01-30T01:05:05;12.47;;;5.53;;
79202;SDS011;68630;42.748;23.278;2024-01-30T01:07:34;9.88;;;4.58;;
79202;SDS011;68630;42.748;23.278;2024-01-30T01:10:02;8.23;;;3.85;;
79202;SDS011;68630;42.748;23.278;2024-01-30T01:12:31;8.73;;;4.22;;
79202;SDS011;68630;42.748;23.278;2024-01-30T01:14:59;11.00;;;4.60;;
79202;SDS011;68630;42.748;23.278;2024-01-30T01:17:28;7.65;;;3.30;;
79202;SDS011;68630;42.748;23.278;2024-01-30T01:19:55;7.45;;;3.70;;
79202;SDS011;68630;42.748;23.278;2024-01-30T01:22:23;7.25;;;3.70;;
79202;SDS011;68630;42.748;23.278;2024-01-30T01:24:52;7.28;;;3.58;;
79202;SDS011;68630;42.748;23.278;2024-01-30T01:27:20;9.50;;;4.55;;
79202;SDS011;68630;42.748;23.278;2024-01-30T01:29:48;9.43;;;4.50;;
79202;SDS011;68630;42.748;23.278;2024-01-30T01:32:17;7.30;;;4.05;;
79202;SDS011;68630;42.748;23.278;2024-01-30T01:34:47;6.70;;;3.62;;
79202;SDS011;68630;42.748;23.278;2024-01-30T01:37:15;10.75;;;4.60;;
79202;SDS011;68630;42.748;23.278;2024-01-30T01:39:43;8.50;;;4.08;;
79202;SDS011;68630;42.748;23.278;2024-01-30T01:42:11;13.08;;;5.20;;
79202;SDS011;68630;42.748;23.278;2024-01-30T01:44:38;9.33;;;3.92;;
79202;SDS011;68630;42.748;23.278;2024-01-30T01:47:08;10.35;;;4.95;;
79202;SDS011;68630;42.748;23.278;2024-01-30T01:49:37;8.03;;;4.60;;
79202;SDS011;68630;42.748;23.278;2024-01-30T01:52:05;8.25;;;4.62;;
79202;SDS011;68630;42.748;23.278;2024-01-30T01:54:36;9.80;;;5.12;;
79202;SDS011;68630;42.748;23.278;2024-01-30T01:57:04;9.73;;;4.70;;
79202;SDS011;68630;42.748;23.278;2024-01-30T01:59:32;10.05;;;4.30;;
79202;SDS011;68630;42.748;23.278;2024-01-30T02:02:00;10.18;;;4.65;;
79202;SDS011;68630;42.748;23.278;2024-01-30T02:04:32;10.88;;;4.42;;
79202;SDS011;68630;42.748;23.278;2024-01-30T02:07:00;9.63;;;4.78;;
79202;SDS011;68630;42.748;23.278;2024-01-30T02:09:29;8.45;;;4.10;;
79202;SDS011;68630;42.748;23.278;2024-01-30T02:11:57;8.23;;;4.40;;
79202;SDS011;68630;42.748;23.278;2024-01-30T02:17:20;8.05;;;3.33;;
79202;SDS011;68630;42.748;23.278;2024-01-30T02:19:53;8.05;;;4.25;;
79202;SDS011;68630;42.748;23.278;2024-01-30T02:22:18;6.72;;;4.08;;
79202;SDS011;68630;42.748;23.278;2024-01-30T02:24:47;7.17;;;4.00;;
79202;SDS011;68630;42.748;23.278;2024-01-30T02:27:14;11.18;;;5.00;;
79202;SDS011;68630;42.748;23.278;2024-01-30T02:29:42;7.28;;;4.00;;
79202;SDS011;68630;42.748;23.278;2024-01-30T02:32:09;9.30;;;4.50;;
79202;SDS011;68630;42.748;23.278;2024-01-30T02:34:37;11.00;;;4.53;;
79202;SDS011;68630;42.748;23.278;2024-01-30T02:37:06;9.65;;;4.45;;
79202;SDS011;68630;42.748;23.278;2024-01-30T02:39:34;12.05;;;5.03;;
79202;SDS011;68630;42.748;23.278;2024-01-30T02:42:01;10.10;;;4.72;;
79202;SDS011;68630;42.748;23.278;2024-01-30T02:44:29;10.65;;;4.35;;
79202;SDS011;68630;42.748;23.278;2024-01-30T02:46:58;10.08;;;5.30;;
79202;SDS011;68630;42.748;23.278;2024-01-30T02:49:29;8.93;;;4.30;;
79202;SDS011;68630;42.748;23.278;2024-01-30T02:51:55;9.53;;;4.28;;
79202;SDS011;68630;42.748;23.278;2024-01-30T02:54:30;8.03;;;4.30;;
79202;SDS011;68630;42.748;23.278;2024-01-30T02:57:03;6.33;;;3.37;;
79202;SDS011;68630;42.748;23.278;2024-01-30T02:59:32;7.53;;;3.85;;
79202;SDS011;68630;42.748;23.278;2024-01-30T03:02:01;7.62;;;3.70;;
79202;SDS011;68630;42.748;23.278;2024-01-30T03:04:29;7.03;;;3.35;;
79202;SDS011;68630;42.748;23.278;2024-01-30T03:06:56;6.95;;;3.80;;
79202;SDS011;68630;42.748;23.278;2024-01-30T03:09:25;9.53;;;4.17;;
79202;SDS011;68630;42.748;23.278;2024-01-30T03:14:59;8.53;;;4.22;;
79202;SDS011;68630;42.748;23.278;2024-01-30T03:17:31;6.40;;;3.30;;
79202;SDS011;68630;42.748;23.278;2024-01-30T03:20:02;8.08;;;3.47;;
79202;SDS011;68630;42.748;23.278;2024-01-30T03:22:31;8.58;;;4.08;;
79202;SDS011;68630;42.748;23.278;2024-01-30T03:24:59;11.53;;;3.55;;
79202;SDS011;68630;42.748;23.278;2024-01-30T03:27:26;6.15;;;3.35;;
79202;SDS011;68630;42.748;23.278;2024-01-30T03:29:54;7.08;;;3.52;;
79202;SDS011;68630;42.748;23.278;2024-01-30T03:32:22;7.40;;;3.22;;
79202;SDS011;68630;42.748;23.278;2024-01-30T03:34:49;8.38;;;4.00;;
79202;SDS011;68630;42.748;23.278;2024-01-30T03:37:17;6.55;;;3.50;;
79202;SDS011;68630;42.748;23.278;2024-01-30T03:42:38;8.33;;;3.45;;
79202;SDS011;68630;42.748;23.278;2024-01-30T03:45:07;9.55;;;3.80;;
79202;SDS011;68630;42.748;23.278;2024-01-30T03:47:35;7.15;;;3.75;;
79202;SDS011;68630;42.748;23.278;2024-01-30T03:50:02;4.37;;;2.58;;
79202;SDS011;68630;42.748;23.278;2024-01-30T03:52:30;5.17;;;3.08;;
79202;SDS011;68630;42.748;23.278;2024-01-30T03:54:58;5.58;;;2.98;;
79202;SDS011;68630;42.748;23.278;2024-01-30T03:57:25;6.08;;;3.05;;
79202;SDS011;68630;42.748;23.278;2024-01-30T03:59:53;5.45;;;3.17;;
79202;SDS011;68630;42.748;23.278;2024-01-30T04:02:25;5.85;;;3.52;;
79202;SDS011;68630;42.748;23.278;2024-01-30T04:04:54;8.40;;;2.98;;
79202;SDS011;68630;42.748;23.278;2024-01-30T04:07:26;7.85;;;3.52;;
79202;SDS011;68630;42.748;23.278;2024-01-30T04:09:55;4.85;;;2.90;;
79202;SDS011;68630;42.748;23.278;2024-01-30T04:12:23;7.45;;;2.77;;
79202;SDS011;68630;42.748;23.278;2024-01-30T04:14:53;7.70;;;3.70;;
79202;SDS011;68630;42.748;23.278;2024-01-30T04:17:21;4.08;;;2.40;;
79202;SDS011;68630;42.748;23.278;2024-01-30T04:19:50;5.47;;;2.87;;
79202;SDS011;68630;42.748;23.278;2024-01-30T04:22:19;4.17;;;2.47;;
79202;SDS011;68630;42.748;23.278;2024-01-30T04:24:47;5.58;;;2.60;;
79202;SDS011;68630;42.748;23.278;2024-01-30T04:27:15;4.72;;;2.65;;
79202;SDS011;68630;42.748;23.278;2024-01-30T04:29:43;6.67;;;3.40;;
79202;SDS011;68630;42.748;23.278;2024-01-30T04:32:11;5.67;;;3.45;;
79202;SDS011;68630;42.748;23.278;2024-01-30T04:34:38;13.20;;;3.80;;
79202;SDS011;68630;42.748;23.278;2024-01-30T04:37:06;7.37;;;3.70;;
79202;SDS011;68630;42.748;23.278;2024-01-30T04:39:51;10.08;;;4.72;;
79202;SDS011;68630;42.748;23.278;2024-01-30T04:49:07;8.55;;;3.37;;
79202;SDS011;68630;42.748;23.278;2024-01-30T04:51:35;7.53;;;3.85;;
79202;SDS011;68630;42.748;23.278;2024-01-30T04:54:04;7.75;;;3.67;;
79202;SDS011;68630;42.748;23.278;2024-01-30T04:56:31;17.75;;;4.08;;
79202;SDS011;68630;42.748;23.278;2024-01-30T04:59:02;11.10;;;4.95;;
79202;SDS011;68630;42.748;23.278;2024-01-30T05:01:30;9.13;;;4.03;;
79202;SDS011;68630;42.748;23.278;2024-01-30T05:07:23;15.83;;;5.22;;
79202;SDS011;68630;42.748;23.278;2024-01-30T05:09:53;12.73;;;4.60;;
79202;SDS011;68630;42.748;23.278;2024-01-30T05:12:20;11.15;;;5.20;;
79202;SDS011;68630;42.748;23.278;2024-01-30T05:14:52;13.03;;;4.80;;
79202;SDS011;68630;42.748;23.278;2024-01-30T05:17:21;13.48;;;4.53;;
79202;SDS011;68630;42.748;23.278;2024-01-30T05:19:49;13.80;;;5.03;;
79202;SDS011;68630;42.748;23.278;2024-01-30T05:22:17;10.93;;;3.98;;
79202;SDS011;68630;42.748;23.278;2024-01-30T05:24:44;17.80;;;4.08;;
79202;SDS011;68630;42.748;23.278;2024-01-30T05:27:13;10.08;;;3.40;;
79202;SDS011;68630;42.748;23.278;2024-01-30T05:29:44;6.17;;;3.55;;
79202;SDS011;68630;42.748;23.278;2024-01-30T05:32:11;7.62;;;3.80;;
79202;SDS011;68630;42.748;23.278;2024-01-30T05:34:39;11.70;;;4.10;;
79202;SDS011;68630;42.748;23.278;2024-01-30T05:37:08;9.50;;;4.05;;
79202;SDS011;68630;42.748;23.278;2024-01-30T05:39:37;11.80;;;4.28;;
79202;SDS011;68630;42.748;23.278;2024-01-30T05:42:05;8.10;;;4.10;;
79202;SDS011;68630;42.748;23.278;2024-01-30T05:44:32;9.08;;;4.10;;
79202;SDS011;68630;42.748;23.278;2024-01-30T05:47:02;9.45;;;4.67;;
79202;SDS011;68630;42.748;23.278;2024-01-30T05:49:33;13.55;;;4.67;;
79202;SDS011;68630;42.748;23.278;2024-01-30T05:52:03;11.18;;;4.97;;
79202;SDS011;68630;42.748;23.278;2024-01-30T05:54:31;7.80;;;3.75;;
79202;SDS011;68630;42.748;23.278;2024-01-30T05:56:59;9.13;;;4.50;;
79202;SDS011;68630;42.748;23.278;2024-01-30T05:59:28;11.63;;;5.37;;
79202;SDS011;68630;42.748;23.278;2024-01-30T06:01:58;10.15;;;4.80;;
79202;SDS011;68630;42.748;23.278;2024-01-30T06:04:26;6.55;;;3.90;;
79202;SDS011;68630;42.748;23.278;2024-01-30T06:06:55;9.73;;;4.12;;
79202;SDS011;68630;42.748;23.278;2024-01-30T06:09:27;11.30;;;4.10;;
79202;SDS011;68630;42.748;23.278;2024-01-30T06:11:55;5.87;;;3.50;;
79202;SDS011;68630;42.748;23.278;2024-01-30T06:14:26;16.00;;;4.65;;
79202;SDS011;68630;42.748;23.278;2024-01-30T06:16:56;9.25;;;4.08;;
79202;SDS011;68630;42.748;23.278;2024-01-30T06:19:25;19.75;;;4.90;;
79202;SDS011;68630;42.748;23.278;2024-01-30T06:21:52;15.23;;;5.87;;
79202;SDS011;68630;42.748;23.278;2024-01-30T06:24:25;16.87;;;8.08;;
79202;SDS011;68630;42.748;23.278;2024-01-30T06:26:53;13.38;;;7.15;;
79202;SDS011;68630;42.748;23.278;2024-01-30T06:29:21;16.70;;;7.33;;
79202;SDS011;68630;42.748;23.278;2024-01-30T06:31:50;18.70;;;8.00;;
79202;SDS011;68630;42.748;23.278;2024-01-30T06:34:21;10.82;;;5.90;;
79202;SDS011;68630;42.748;23.278;2024-01-30T06:36:52;16.40;;;4.72;;
79202;SDS011;68630;42.748;23.278;2024-01-30T06:39:21;8.13;;;4.45;;
79202;SDS011;68630;42.748;23.278;2024-01-30T06:41:49;16.23;;;3.42;;
79202;SDS011;68630;42.748;23.278;2024-01-30T06:44:17;11.38;;;4.22;;
79202;SDS011;68630;42.748;23.278;2024-01-30T06:46:47;15.45;;;3.75;;
79202;SDS011;68630;42.748;23.278;2024-01-30T06:55:53;9.55;;;4.67;;
79202;SDS011;68630;42.748;23.278;2024-01-30T06:58:22;11.93;;;4.83;;
79202;SDS011;68630;42.748;23.278;2024-01-30T07:01:00;9.93;;;3.72;;
79202;SDS011;68630;42.748;23.278;2024-01-30T07:03:23;15.83;;;3.98;;
79202;SDS011;68630;42.748;23.278;2024-01-30T07:05:55;8.80;;;3.92;;
79202;SDS011;68630;42.748;23.278;2024-01-30T07:08:22;5.50;;;3.12;;
79202;SDS011;68630;42.748;23.278;2024-01-30T07:10:52;12.90;;;3.90;;
79202;SDS011;68630;42.748;23.278;2024-01-30T07:13:21;15.20;;;5.22;;
79202;SDS011;68630;42.748;23.278;2024-01-30T07:15:48;13.03;;;5.17;;
79202;SDS011;68630;42.748;23.278;2024-01-30T07:18:16;11.18;;;3.62;;
79202;SDS011;68630;42.748;23.278;2024-01-30T07:20:45;11.70;;;3.47;;
79202;SDS011;68630;42.748;23.278;2024-01-30T07:25:53;10.38;;;3.85;;
79202;SDS011;68630;42.748;23.278;2024-01-30T07:28:21;9.83;;;3.17;;
79202;SDS011;68630;42.748;23.278;2024-01-30T07:30:49;7.20;;;3.22;;
79202;SDS011;68630;42.748;23.278;2024-01-30T07:33:17;7.17;;;3.42;;
79202;SDS011;68630;42.748;23.278;2024-01-30T07:35:46;8.73;;;2.42;;
79202;SDS011;68630;42.748;23.278;2024-01-30T07:38:15;14.38;;;2.67;;
79202;SDS011;68630;42.748;23.278;2024-01-30T07:40:46;6.35;;;2.37;;
79202;SDS011;68630;42.748;23.278;2024-01-30T07:43:16;15.63;;;6.33;;
79202;SDS011;68630;42.748;23.278;2024-01-30T07:45:45;13.43;;;3.70;;
79202;SDS011;68630;42.748;23.278;2024-01-30T07:48:13;5.75;;;2.55;;
79202;SDS011;68630;42.748;23.278;2024-01-30T07:50:42;4.00;;;2.20;;
79202;SDS011;68630;42.748;23.278;2024-01-30T07:53:12;7.85;;;3.00;;
79202;SDS011;68630;42.748;23.278;2024-01-30T07:55:45;9.38;;;2.60;;
79202;SDS011;68630;42.748;23.278;2024-01-30T07:58:15;3.52;;;2.42;;
79202;SDS011;68630;42.748;23.278;2024-01-30T08:00:45;4.50;;;2.47;;
79202;SDS011;68630;42.748;23.278;2024-01-30T08:03:17;4.15;;;2.40;;
79202;SDS011;68630;42.748;23.278;2024-01-30T08:05:46;9.68;;;2.65;;
79202;SDS011;68630;42.748;23.278;2024-01-30T08:10:45;5.60;;;2.30;;
79202;SDS011;68630;42.748;23.278;2024-01-30T08:13:13;10.95;;;2.92;;
79202;SDS011;68630;42.748;23.278;2024-01-30T08:15:41;12.07;;;3.37;;
79202;SDS011;68630;42.748;23.278;2024-01-30T08:18:11;4.35;;;2.70;;
79202;SDS011;68630;42.748;23.278;2024-01-30T08:20:39;5.83;;;2.65;;
79202;SDS011;68630;42.748;23.278;2024-01-30T08:23:11;7.03;;;2.67;;
79202;SDS011;68630;42.748;23.278;2024-01-30T08:25:38;5.35;;;2.77;;
79202;SDS011;68630;42.748;23.278;2024-01-30T08:28:06;10.20;;;2.83;;
79202;SDS011;68630;42.748;23.278;2024-01-30T08:30:35;8.68;;;2.95;;
79202;SDS011;68630;42.748;23.278;2024-01-30T08:33:04;4.15;;;2.52;;
79202;SDS011;68630;42.748;23.278;2024-01-30T08:35:33;18.70;;;3.22;;
79202;SDS011;68630;42.748;23.278;2024-01-30T08:38:04;8.33;;;3.08;;
79202;SDS011;68630;42.748;23.278;2024-01-30T08:40:48;12.82;;;3.50;;
79202;SDS011;68630;42.748;23.278;2024-01-30T08:43:15;8.90;;;3.33;;
79202;SDS011;68630;42.748;23.278;2024-01-30T08:45:41;7.35;;;2.80;;
79202;SDS011;68630;42.748;23.278;2024-01-30T08:48:12;10.10;;;3.05;;
79202;SDS011;68630;42.748;23.278;2024-01-30T08:50:47;5.80;;;2.37;;
79202;SDS011;68630;42.748;23.278;2024-01-30T08:53:15;9.95;;;3.52;;
79202;SDS011;68630;42.748;23.278;2024-01-30T08:55:45;5.58;;;2.70;;
79202;SDS011;68630;42.748;23.278;2024-01-30T08:58:16;7.80;;;2.87;;
79202;SDS011;68630;42.748;23.278;2024-01-30T09:00:44;6.70;;;2.85;;
79202;SDS011;68630;42.748;23.278;2024-01-30T09:03:14;7.05;;;2.85;;
79202;SDS011;68630;42.748;23.278;2024-01-30T09:05:48;5.22;;;2.92;;
79202;SDS011;68630;42.748;23.278;2024-01-30T09:08:17;9.20;;;3.00;;
79202;SDS011;68630;42.748;23.278;2024-01-30T09:20:29;2.72;;;1.92;;
79202;SDS011;68630;42.748;23.278;2024-01-30T09:22:57;16.80;;;3.22;;
79202;SDS011;68630;42.748;23.278;2024-01-30T09:25:24;4.33;;;2.27;;
79202;SDS011;68630;42.748;23.278;2024-01-30T09:27:52;4.35;;;2.05;;
79202;SDS011;68630;42.748;23.278;2024-01-30T09:30:19;4.35;;;2.25;;
79202;SDS011;68630;42.748;23.278;2024-01-30T09:32:48;5.75;;;2.27;;
79202;SDS011;68630;42.748;23.278;2024-01-30T09:35:16;4.78;;;2.42;;
79202;SDS011;68630;42.748;23.278;2024-01-30T09:37:46;5.03;;;2.08;;
79202;SDS011;68630;42.748;23.278;2024-01-30T09:40:15;5.10;;;1.80;;
79202;SDS011;68630;42.748;23.278;2024-01-30T09:42:47;5.67;;;2.17;;
79202;SDS011;68630;42.748;23.278;2024-01-30T09:45:21;11.03;;;2.40;;
79202;SDS011;68630;42.748;23.278;2024-01-30T09:47:52;10.60;;;2.10;;
79202;SDS011;68630;42.748;23.278;2024-01-30T09:50:22;3.30;;;1.75;;
79202;SDS011;68630;42.748;23.278;2024-01-30T09:56:03;11.18;;;2.58;;
79202;SDS011;68630;42.748;23.278;2024-01-30T09:58:32;3.90;;;2.05;;
79202;SDS011;68630;42.748;23.278;2024-01-30T10:00:59;4.58;;;2.33;;
79202;SDS011;68630;42.748;23.278;2024-01-30T10:03:31;4.35;;;2.40;;
79202;SDS011;68630;42.748;23.278;2024-01-30T10:05:59;3.72;;;2.30;;
79202;SDS011;68630;42.748;23.278;2024-01-30T10:08:28;5.28;;;2.15;;
79202;SDS011;68630;42.748;23.278;2024-01-30T10:11:05;5.22;;;2.25;;
79202;SDS011;68630;42.748;23.278;2024-01-30T10:13:28;6.62;;;2.20;;
79202;SDS011;68630;42.748;23.278;2024-01-30T10:18:34;4.87;;;2.25;;
79202;SDS011;68630;42.748;23.278;2024-01-30T10:21:02;2.17;;;1.50;;
79202;SDS011;68630;42.748;23.278;2024-01-30T10:23:31;4.42;;;2.15;;
79202;SDS011;68630;42.748;23.278;2024-01-30T10:25:59;2.87;;;1.75;;
79202;SDS011;68630;42.748;23.278;2024-01-30T10:28:29;3.00;;;2.12;;
79202;SDS011;68630;42.748;23.278;2024-01-30T10:31:04;7.85;;;2.27;;
79202;SDS011;68630;42.748;23.278;2024-01-30T10:33:29;2.27;;;1.42;;
79202;SDS011;68630;42.748;23.278;2024-01-30T10:36:00;4.35;;;1.70;;
79202;SDS011;68630;42.748;23.278;2024-01-30T10:38:31;3.75;;;1.90;;
79202;SDS011;68630;42.748;23.278;2024-01-30T10:41:00;3.72;;;1.80;;
79202;SDS011;68630;42.748;23.278;2024-01-30T10:43:40;10.38;;;2.20;;
79202;SDS011;68630;42.748;23.278;2024-01-30T10:46:16;3.20;;;2.08;;
79202;SDS011;68630;42.748;23.278;2024-01-30T10:48:55;9.03;;;2.20;;
79202;SDS011;68630;42.748;23.278;2024-01-30T10:51:26;4.03;;;2.15;;
79202;SDS011;68630;42.748;23.278;2024-01-30T10:53:57;5.67;;;1.95;;
79202;SDS011;68630;42.748;23.278;2024-01-30T10:56:25;6.85;;;2.27;;
79202;SDS011;68630;42.748;23.278;2024-01-30T10:58:55;5.53;;;2.70;;
79202;SDS011;68630;42.748;23.278;2024-01-30T11:01:23;3.75;;;1.72;;
79202;SDS011;68630;42.748;23.278;2024-01-30T11:03:54;5.47;;;2.50;;
79202;SDS011;68630;42.748;23.278;2024-01-30T11:06:25;3.60;;;2.30;;
79202;SDS011;68630;42.748;23.278;2024-01-30T11:09:09;6.03;;;2.60;;
79202;SDS011;68630;42.748;23.278;2024-01-30T11:11:55;5.80;;;3.20;;
79202;SDS011;68630;42.748;23.278;2024-01-30T11:14:26;8.15;;;2.30;;
79202;SDS011;68630;42.748;23.278;2024-01-30T11:16:59;6.40;;;2.33;;
79202;SDS011;68630;42.748;23.278;2024-01-30T11:19:27;5.85;;;2.80;;
79202;SDS011;68630;42.748;23.278;2024-01-30T11:21:56;4.58;;;1.77;;
79202;SDS011;68630;42.748;23.278;2024-01-30T11:24:24;7.47;;;2.60;;
79202;SDS011;68630;42.748;23.278;2024-01-30T11:26:58;4.08;;;2.30;;
79202;SDS011;68630;42.748;23.278;2024-01-30T11:29:28;5.10;;;2.60;;
79202;SDS011;68630;42.748;23.278;2024-01-30T11:31:58;4.25;;;1.95;;
79202;SDS011;68630;42.748;23.278;2024-01-30T11:34:28;3.52;;;2.08;;
79202;SDS011;68630;42.748;23.278;2024-01-30T11:36:56;4.30;;;1.98;;
79202;SDS011;68630;42.748;23.278;2024-01-30T11:39:29;4.12;;;2.45;;
79202;SDS011;68630;42.748;23.278;2024-01-30T11:41:57;4.90;;;1.77;;
79202;SDS011;68630;42.748;23.278;2024-01-30T11:44:26;5.08;;;2.50;;
79202;SDS011;68630;42.748;23.278;2024-01-30T11:46:55;6.45;;;2.45;;
79202;SDS011;68630;42.748;23.278;2024-01-30T11:49:25;5.58;;;2.70;;
79202;SDS011;68630;42.748;23.278;2024-01-30T11:51:55;3.52;;;2.00;;
79202;SDS011;68630;42.748;23.278;2024-01-30T11:54:22;4.05;;;2.40;;
79202;SDS011;68630;42.748;23.278;2024-01-30T11:56:51;6.87;;;2.75;;
79202;SDS011;68630;42.748;23.278;2024-01-30T11:59:21;6.87;;;2.60;;
79202;SDS011;68630;42.748;23.278;2024-01-30T12:01:51;5.60;;;2.83;;
79202;SDS011;68630;42.748;23.278;2024-01-30T12:04:28;5.85;;;2.40;;
79202;SDS011;68630;42.748;23.278;2024-01-30T12:06:57;5.90;;;2.80;;
79202;SDS011;68630;42.748;23.278;2024-01-30T12:12:53;8.45;;;3.50;;
79202;SDS011;68630;42.748;23.278;2024-01-30T12:15:18;14.30;;;3.12;;
79202;SDS011;68630;42.748;23.278;2024-01-30T12:17:50;9.18;;;3.08;;
79202;SDS011;68630;42.748;23.278;2024-01-30T12:20:22;6.60;;;2.80;;
79202;SDS011;68630;42.748;23.278;2024-01-30T12:22:49;8.13;;;2.90;;
79202;SDS011;68630;42.748;23.278;2024-01-30T12:25:20;4.30;;;2.45;;
79202;SDS011;68630;42.748;23.278;2024-01-30T12:27:54;12.82;;;3.50;;
79202;SDS011;68630;42.748;23.278;2024-01-30T12:30:24;5.75;;;2.92;;
79202;SDS011;68630;42.748;23.278;2024-01-30T12:32:53;6.47;;;3.33;;
79202;SDS011;68630;42.748;23.278;2024-01-30T12:35:21;11.28;;;3.30;;
79202;SDS011;68630;42.748;23.278;2024-01-30T12:37:50;6.45;;;3.27;;
79202;SDS011;68630;42.748;23.278;2024-01-30T12:40:19;6.85;;;3.72;;
79202;SDS011;68630;42.748;23.278;2024-01-30T12:42:47;5.15;;;2.72;;
79202;SDS011;68630;42.748;23.278;2024-01-30T12:45:17;4.40;;;2.70;;
79202;SDS011;68630;42.748;23.278;2024-01-30T12:47:53;8.55;;;4.03;;
79202;SDS011;68630;42.748;23.278;2024-01-30T12:50:17;9.30;;;3.30;;
79202;SDS011;68630;42.748;23.278;2024-01-30T12:52:45;4.58;;;3.00;;
79202;SDS011;68630;42.748;23.278;2024-01-30T12:55:13;8.10;;;3.30;;
79202;SDS011;68630;42.748;23.278;2024-01-30T12:57:41;7.03;;;3.15;;
79202;SDS011;68630;42.748;23.278;2024-01-30T13:00:08;9.78;;;3.75;;
79202;SDS011;68630;42.748;23.278;2024-01-30T13:02:36;5.70;;;3.10;;
79202;SDS011;68630;42.748;23.278;2024-01-30T13:05:04;5.55;;;2.95;;
79202;SDS011;68630;42.748;23.278;2024-01-30T13:07:33;9.73;;;3.02;;
79202;SDS011;68630;42.748;23.278;2024-01-30T13:10:01;16.60;;;3.08;;
79202;SDS011;68630;42.748;23.278;2024-01-30T13:12:29;12.65;;;3.60;;
79202;SDS011;68630;42.748;23.278;2024-01-30T13:15:04;6.25;;;3.12;;
79202;SDS011;68630;42.748;23.278;2024-01-30T13:17:33;7.12;;;3.17;;
79202;SDS011;68630;42.748;23.278;2024-01-30T13:20:05;9.88;;;3.47;;
79202;SDS011;68630;42.748;23.278;2024-01-30T13:22:36;5.60;;;3.33;;
79202;SDS011;68630;42.748;23.278;2024-01-30T13:25:04;5.60;;;3.30;;
79202;SDS011;68630;42.748;23.278;2024-01-30T13:30:56;10.28;;;3.70;;
79202;SDS011;68630;42.748;23.278;2024-01-30T13:33:24;9.65;;;3.02;;
79202;SDS011;68630;42.748;23.278;2024-01-30T13:36:00;9.58;;;3.58;;
79202;SDS011;68630;42.748;23.278;2024-01-30T13:38:24;7.70;;;3.47;;
79202;SDS011;68630;42.748;23.278;2024-01-30T13:40:54;12.33;;;3.92;;
79202;SDS011;68630;42.748;23.278;2024-01-30T13:43:22;10.75;;;3.30;;
79202;SDS011;68630;42.748;23.278;2024-01-30T13:45:52;11.28;;;3.25;;
79202;SDS011;68630;42.748;23.278;2024-01-30T13:48:22;15.98;;;3.65;;
79202;SDS011;68630;42.748;23.278;2024-01-30T13:50:49;6.62;;;3.42;;
79202;SDS011;68630;42.748;23.278;2024-01-30T13:53:18;7.62;;;3.95;;
79202;SDS011;68630;42.748;23.278;2024-01-30T13:55:46;7.10;;;3.45;;
79202;SDS011;68630;42.748;23.278;2024-01-30T13:58:14;8.73;;;3.62;;
79202;SDS011;68630;42.748;23.278;2024-01-30T14:00:43;6.62;;;3.42;;
79202;SDS011;68630;42.748;23.278;2024-01-30T14:03:10;9.05;;;4.17;;
79202;SDS011;68630;42.748;23.278;2024-01-30T14:05:38;14.00;;;3.98;;
79202;SDS011;68630;42.748;23.278;2024-01-30T14:08:10;6.28;;;2.90;;
79202;SDS011;68630;42.748;23.278;2024-01-30T14:10:40;19.17;;;4.90;;
79202;SDS011;68630;42.748;23.278;2024-01-30T14:13:07;11.65;;;4.53;;
79202;SDS011;68630;42.748;23.278;2024-01-30T14:15:36;17.20;;;3.95;;
79202;SDS011;68630;42.748;23.278;2024-01-30T14:18:06;10.23;;;4.65;;
79202;SDS011;68630;42.748;23.278;2024-01-30T14:20:36;7.78;;;4.35;;
79202;SDS011;68630;42.748;23.278;2024-01-30T14:23:04;10.18;;;4.85;;
79202;SDS011;68630;42.748;23.278;2024-01-30T14:25:34;12.50;;;4.55;;
79202;SDS011;68630;42.748;23.278;2024-01-30T14:34:52;14.85;;;4.60;;
79202;SDS011;68630;42.748;23.278;2024-01-30T14:37:22;7.40;;;3.83;;
79202;SDS011;68630;42.748;23.278;2024-01-30T14:39:51;7.95;;;4.20;;
79202;SDS011;68630;42.748;23.278;2024-01-30T14:42:19;9.90;;;3.95;;
79202;SDS011;68630;42.748;23.278;2024-01-30T14:44:56;6.85;;;4.00;;
79202;SDS011;68630;42.748;23.278;2024-01-30T14:47:31;8.08;;;4.35;;
79202;SDS011;68630;42.748;23.278;2024-01-30T14:57:05;11.30;;;4.60;;
79202;SDS011;68630;42.748;23.278;2024-01-30T14:59:34;14.23;;;4.60;;
79202;SDS011;68630;42.748;23.278;2024-01-30T15:02:03;10.88;;;4.60;;
79202;SDS011;68630;42.748;23.278;2024-01-30T15:04:35;17.12;;;5.15;;
79202;SDS011;68630;42.748;23.278;2024-01-30T15:07:02;25.05;;;5.33;;
79202;SDS011;68630;42.748;23.278;2024-01-30T15:09:36;29.87;;;7.08;;
79202;SDS011;68630;42.748;23.278;2024-01-30T15:12:01;56.08;;;7.80;;
79202;SDS011;68630;42.748;23.278;2024-01-30T15:14:30;100.02;;;9.78;;
79202;SDS011;68630;42.748;23.278;2024-01-30T15:17:03;50.12;;;8.23;;
79202;SDS011;68630;42.748;23.278;2024-01-30T15:19:32;50.15;;;7.85;;
79202;SDS011;68630;42.748;23.278;2024-01-30T15:22:06;61.13;;;6.90;;
79202;SDS011;68630;42.748;23.278;2024-01-30T15:24:34;28.75;;;6.10;;
79202;SDS011;68630;42.748;23.278;2024-01-30T15:27:02;26.45;;;5.62;;
79202;SDS011;68630;42.748;23.278;2024-01-30T15:29:36;23.42;;;5.53;;
79202;SDS011;68630;42.748;23.278;2024-01-30T15:32:04;13.72;;;5.42;;
79202;SDS011;68630;42.748;23.278;2024-01-30T15:34:41;17.67;;;6.55;;
79202;SDS011;68630;42.748;23.278;2024-01-30T15:37:08;14.75;;;6.00;;
79202;SDS011;68630;42.748;23.278;2024-01-30T15:39:36;11.95;;;5.25;;
79202;SDS011;68630;42.748;23.278;2024-01-30T15:42:06;12.25;;;4.83;;
79202;SDS011;68630;42.748;23.278;2024-01-30T15:44:40;23.30;;;6.60;;
79202;SDS011;68630;42.748;23.278;2024-01-30T15:47:07;13.78;;;5.58;;
79202;SDS011;68630;42.748;23.278;2024-01-30T15:49:35;31.07;;;5.65;;